Aérodrome :
LOGIN :

S'inscrire | Disclaimer

   EN    FR    IT 

 










Légende :    VFR   VFR Marginal   IFR   IFR Intensif   IFR Très Intensif
Visi : 
Plafond : 
>= 8 km
>= 3000ft
5 à 8 km
1000 à 3000 ft
1500m à 5 km
500 à 1000 ft
800 à 1500m
200 à 500 ft
< 800m
< 200 ft
Symboles :   Orages  Brouillard  Fortes neiges  Fortes précipitations  Vent > 20 kt
SIGMETs :   Divers  Orages  Givrage  Turbulence  Onde Orograph.  Cendres Volcan.






- Altitude de l'aérodrome : 404 ft
- Code IATA : WRO


EPWR - Wroclaw

DERNIER METAR :
  • 061000Z 22010KT CAVOK 03/M03 Q1015

METARs EXPIRÉS :
  • 060930Z 22008KT 170V250 CAVOK 02/M04 Q1016
  • 060900Z 16005KT CAVOK 00/M03 Q1016
  • 060830Z 14005KT CAVOK M01/M03 Q1016
  • 060800Z 14004KT CAVOK M03/M05 Q1016
  • 060730Z 16006KT CAVOK M03/M06 Q1016

TAF TAF EPWR
Valide du 06 à 09h jusqu'au 07 à 09h UTC


060830Z 0609/0709 14004KT CAVOK
BECMG 0609/0611 20011KT
TEMPO 0700/0709 23015G25KT



MET'MAP, la Météo Aéronautique d'un coup d'oeil ! - Copyright ORBIFLY Décembre 2007 - Disclaimer

ORBIFLY MET'MAP TEAM :

Programmation & Développement : Alexandra Zaïnal
Sur une idée originale de : Baudouin d'Aumeries
Assistance à la programmation : Marc-Olivier Méhu
Soutien technique & logistique : Manuel Goepfert

Contact : metmap@orbifly.com




SOURCES & CREDITS :

   NOAA